createdAt,value
2022-11-18T00:02:43.442Z,2.30
2022-11-18T00:05:55.347Z,2.60
2022-11-18T00:09:02.218Z,2.20
2022-11-18T00:12:24.657Z,2.10
2022-11-18T00:15:31.858Z,1.97
2022-11-18T00:18:37.095Z,2.00
2022-11-18T00:21:42.589Z,1.70
2022-11-18T00:24:48.651Z,2.10
2022-11-18T00:27:53.511Z,2.07
2022-11-18T00:31:03.932Z,1.70
2022-11-18T00:34:11.731Z,1.53
2022-11-18T00:37:16.708Z,1.10
2022-11-18T00:40:23.018Z,1.07
2022-11-18T00:43:27.699Z,0.97
2022-11-18T00:46:32.569Z,1.13
2022-11-18T00:49:37.251Z,1.10
2022-11-18T00:52:42.333Z,1.10
2022-11-18T00:55:48.251Z,1.10
2022-11-18T00:58:53.348Z,1.00
2022-11-18T01:01:57.966Z,0.97
2022-11-18T01:05:02.800Z,0.80
2022-11-18T01:08:07.949Z,0.90
2022-11-18T01:11:32.122Z,0.80
2022-11-18T01:14:37.280Z,0.90
2022-11-18T01:17:42.224Z,0.87
2022-11-18T01:20:47.918Z,0.80
2022-11-18T01:23:53.489Z,0.80
2022-11-18T01:26:59.491Z,0.80
2022-11-18T01:30:04.941Z,0.90
2022-11-18T01:33:12.695Z,0.80
2022-11-18T01:36:19.714Z,0.73
2022-11-18T01:39:24.441Z,0.80
2022-11-18T01:42:30.650Z,0.70
2022-11-18T01:45:36.794Z,1.00
2022-11-18T01:48:42.036Z,0.80
2022-11-18T01:51:51.334Z,0.80
2022-11-18T01:55:00.368Z,0.90
2022-11-18T01:58:10.983Z,0.73
2022-11-18T02:01:16.427Z,0.70
2022-11-18T02:04:21.231Z,1.00
2022-11-18T02:07:26.825Z,0.80
2022-11-18T02:10:31.562Z,0.87
2022-11-18T02:13:37.993Z,1.00
2022-11-18T02:16:58.098Z,0.83
2022-11-18T02:20:30.106Z,0.80
2022-11-18T02:24:18.579Z,0.80
2022-11-18T02:28:26.312Z,0.77
2022-11-18T02:31:35.541Z,0.80
2022-11-18T02:34:49.635Z,0.70
2022-11-18T02:37:58.811Z,0.83
2022-11-18T02:41:07.486Z,0.90
2022-11-18T02:44:15.948Z,1.10
2022-11-18T02:47:22.982Z,0.80
2022-11-18T02:50:29.257Z,1.10
2022-11-18T02:53:35.126Z,1.10
2022-11-18T02:56:39.911Z,0.90
2022-11-18T02:59:44.713Z,1.10
2022-11-18T03:02:52.131Z,1.00
2022-11-18T03:06:08.763Z,0.90
2022-11-18T03:09:21.301Z,1.00
2022-11-18T03:12:35.650Z,1.30
2022-11-18T03:15:50.306Z,1.10
2022-11-18T03:19:02.683Z,1.20
2022-11-18T03:22:15.375Z,1.20
2022-11-18T03:25:25.410Z,1.20
2022-11-18T03:28:33.870Z,1.20
2022-11-18T03:31:42.808Z,1.40
2022-11-18T03:34:51.393Z,1.13
2022-11-18T03:38:01.172Z,1.30
2022-11-18T03:41:10.027Z,1.20
2022-11-18T03:44:21.189Z,1.40
2022-11-18T03:47:31.134Z,1.40
2022-11-18T03:50:42.771Z,1.20
2022-11-18T03:53:54.062Z,1.20
2022-11-18T03:57:02.736Z,1.27
2022-11-18T04:00:10.598Z,1.33
2022-11-18T04:03:15.718Z,1.13
2022-11-18T04:06:27.047Z,1.30
2022-11-18T04:09:38.531Z,1.20
2022-11-18T04:12:48.103Z,1.27
2022-11-18T04:15:53.215Z,1.30
2022-11-18T04:19:01.507Z,1.10
2022-11-18T04:22:15.024Z,1.37
2022-11-18T04:25:19.765Z,1.30
2022-11-18T04:28:24.641Z,1.60
2022-11-18T04:31:29.482Z,1.30
2022-11-18T04:34:34.310Z,1.17
2022-11-18T04:37:40.414Z,1.20
2022-11-18T04:40:45.271Z,1.17
2022-11-18T04:43:49.828Z,1.50
2022-11-18T04:46:56.006Z,1.43
2022-11-18T04:50:00.800Z,1.23
2022-11-18T04:53:07.051Z,1.40
2022-11-18T04:56:13.645Z,1.23
2022-11-18T04:59:21.583Z,1.30
2022-11-18T05:02:26.326Z,1.17
2022-11-18T05:05:31.200Z,1.37
2022-11-18T05:08:37.506Z,1.30
2022-11-18T05:11:59.763Z,1.33
2022-11-18T05:15:04.678Z,1.30
2022-11-18T05:18:15.030Z,1.10
2022-11-18T05:21:20.742Z,1.00
2022-11-18T05:24:27.148Z,1.30
2022-11-18T05:27:31.989Z,1.30
2022-11-18T05:30:36.874Z,1.10
2022-11-18T05:33:42.782Z,1.10
2022-11-18T05:36:47.631Z,1.40
2022-11-18T05:39:53.734Z,1.13
2022-11-18T05:43:13.550Z,1.17
2022-11-18T05:46:18.418Z,1.20
2022-11-18T05:49:23.375Z,1.30
2022-11-18T05:52:28.150Z,1.43
2022-11-18T05:55:39.653Z,1.47
2022-11-18T05:58:44.457Z,1.40
2022-11-18T06:01:54.367Z,1.10
2022-11-18T06:05:01.198Z,1.10
2022-11-18T06:08:06.459Z,1.40
2022-11-18T06:11:15.335Z,1.13
2022-11-18T06:14:24.207Z,1.13
2022-11-18T06:17:31.311Z,1.13
2022-11-18T06:20:38.467Z,1.10
2022-11-18T06:23:44.723Z,1.10
2022-11-18T06:26:51.094Z,1.10
2022-11-18T06:29:55.930Z,1.10
2022-11-18T06:33:00.770Z,1.20
2022-11-18T06:36:06.215Z,1.13
2022-11-18T06:39:11.008Z,1.10
2022-11-18T06:42:31.602Z,1.30
2022-11-18T06:45:36.444Z,1.20
2022-11-18T06:48:41.226Z,1.23
2022-11-18T06:51:46.044Z,1.20
2022-11-18T06:54:50.758Z,1.60
2022-11-18T06:57:58.935Z,1.30
2022-11-18T07:01:12.371Z,1.23
2022-11-18T07:04:17.373Z,1.30
2022-11-18T07:07:22.150Z,1.30
2022-11-18T07:10:27.106Z,1.27
2022-11-18T07:13:33.574Z,1.33
2022-11-18T07:16:38.873Z,1.30
2022-11-18T07:19:43.548Z,1.50
2022-11-18T07:22:48.434Z,1.60
2022-11-18T07:25:56.331Z,1.30
2022-11-18T07:29:02.631Z,1.37
2022-11-18T07:32:08.303Z,1.30
2022-11-18T07:35:13.746Z,1.37
2022-11-18T07:38:18.558Z,1.23
2022-11-18T07:41:24.959Z,1.33
2022-11-18T07:44:30.908Z,1.50
2022-11-18T07:47:36.376Z,1.37
2022-11-18T07:50:46.895Z,1.30
2022-11-18T07:53:52.443Z,3.63
2022-11-18T07:56:57.149Z,1.10
2022-11-18T08:00:04.378Z,1.30
2022-11-18T08:03:16.825Z,1.30
2022-11-18T08:06:22.070Z,1.30
2022-11-18T08:09:26.636Z,1.10
2022-11-18T08:12:31.857Z,1.27
2022-11-18T08:15:42.068Z,1.10
2022-11-18T08:18:47.507Z,1.20
2022-11-18T08:21:52.147Z,1.27
2022-11-18T08:24:56.983Z,1.20
2022-11-18T08:28:01.644Z,1.20
2022-11-18T08:31:13.101Z,1.23
2022-11-18T08:34:18.004Z,1.40
2022-11-18T08:37:22.887Z,1.30
2022-11-18T08:40:29.147Z,1.40
2022-11-18T08:43:34.255Z,1.17
2022-11-18T08:46:40.419Z,1.30
2022-11-18T08:49:45.425Z,1.40
2022-11-18T08:52:50.099Z,1.20
2022-11-18T08:55:58.000Z,1.37
2022-11-18T08:59:02.750Z,1.50
2022-11-18T09:02:15.732Z,1.40
2022-11-18T09:05:20.743Z,1.20
2022-11-18T09:08:26.687Z,1.30
2022-11-18T09:11:31.340Z,1.20
2022-11-18T09:18:02.411Z,1.23
2022-11-18T09:21:10.168Z,1.53
2022-11-18T09:24:15.056Z,1.30
2022-11-18T09:27:20.208Z,1.40
2022-11-18T09:30:25.051Z,1.30
2022-11-18T09:33:31.242Z,1.47
2022-11-18T09:36:36.101Z,1.10
2022-11-18T09:39:41.055Z,1.40
2022-11-18T09:42:57.592Z,1.40
2022-11-18T09:46:11.536Z,1.50
2022-11-18T09:49:26.044Z,3.00
2022-11-18T09:52:36.285Z,1.80
2022-11-18T09:55:41.850Z,1.73
2022-11-18T09:58:46.942Z,1.50
2022-11-18T10:01:53.500Z,1.50
2022-11-18T10:05:14.950Z,1.60
2022-11-18T10:08:26.194Z,1.40
2022-11-18T10:11:41.747Z,1.37
2022-11-18T10:15:05.358Z,1.30
2022-11-18T10:18:57.966Z,1.20
2022-11-18T10:22:01.335Z,1.30
2022-11-18T10:25:13.767Z,2.30
2022-11-18T10:28:23.310Z,3.10
2022-11-18T10:31:28.179Z,1.90
2022-11-18T10:34:33.830Z,1.60
2022-11-18T10:38:06.172Z,1.60
2022-11-18T10:41:07.285Z,3.80
2022-11-18T10:44:32.514Z,1.90
2022-11-18T10:47:37.421Z,1.60
2022-11-18T10:50:43.946Z,1.70
2022-11-18T10:53:49.973Z,1.20
2022-11-18T10:56:58.683Z,1.47
2022-11-18T11:00:05.861Z,1.20
2022-11-18T11:03:39.728Z,1.90
2022-11-18T11:06:44.480Z,1.33
2022-11-18T11:10:02.453Z,1.60
2022-11-18T11:13:15.166Z,2.00
2022-11-18T11:16:26.104Z,1.50
2022-11-18T11:19:41.938Z,2.03
2022-11-18T11:22:47.119Z,1.60
2022-11-18T11:30:03.153Z,1.60
2022-11-18T11:33:31.118Z,1.80
2022-11-18T11:36:46.761Z,1.40
2022-11-18T11:40:05.237Z,1.73
2022-11-18T11:43:27.688Z,1.57
2022-11-18T11:46:39.524Z,1.20
2022-11-18T11:49:54.664Z,1.50
2022-11-18T11:53:17.829Z,1.30
2022-11-18T11:56:29.406Z,1.10
2022-11-18T11:59:44.581Z,1.00
2022-11-18T12:03:08.720Z,1.13
2022-11-18T12:06:13.481Z,1.17
2022-11-18T12:09:22.996Z,1.00
2022-11-18T12:12:38.508Z,1.13
2022-11-18T12:15:56.168Z,1.00
2022-11-18T12:19:04.295Z,1.10
2022-11-18T12:22:10.663Z,0.93
2022-11-18T12:25:52.964Z,1.00
2022-11-18T12:29:23.617Z,1.00
2022-11-18T12:32:42.169Z,0.90
2022-11-18T12:35:49.316Z,0.90
2022-11-18T12:38:54.519Z,1.00
2022-11-18T12:42:18.332Z,1.00
2022-11-18T12:46:00.053Z,1.20
2022-11-18T12:50:12.123Z,1.00
2022-11-18T12:53:38.483Z,1.20
2022-11-18T12:56:43.301Z,1.20
2022-11-18T12:59:48.512Z,1.00
2022-11-18T13:02:54.372Z,1.00
2022-11-18T13:06:08.810Z,1.20
2022-11-18T13:09:18.973Z,0.90
2022-11-18T13:12:27.633Z,0.93
2022-11-18T13:15:50.160Z,1.30
2022-11-18T13:18:56.397Z,1.20
2022-11-18T13:22:20.516Z,0.90
2022-11-18T13:25:28.273Z,1.10
2022-11-18T13:28:37.626Z,1.07
2022-11-18T13:31:48.968Z,1.00
2022-11-18T13:34:55.636Z,1.00
2022-11-18T13:38:02.228Z,0.90
2022-11-18T13:41:22.649Z,0.90
2022-11-18T13:44:29.848Z,1.30
2022-11-18T13:47:38.454Z,0.93
2022-11-18T13:50:47.331Z,1.17
2022-11-18T13:53:52.749Z,1.23
2022-11-18T13:56:59.203Z,0.93
2022-11-18T14:00:08.174Z,1.20
2022-11-18T14:03:25.265Z,1.10
2022-11-18T14:06:32.321Z,1.00
2022-11-18T14:09:37.108Z,0.90
2022-11-18T14:12:43.432Z,1.00
2022-11-18T14:15:48.309Z,0.80
2022-11-18T14:18:53.833Z,1.10
2022-11-18T14:22:08.745Z,1.00
2022-11-18T14:25:20.578Z,0.90
2022-11-18T14:28:28.877Z,0.87
2022-11-18T14:31:33.945Z,1.00
2022-11-18T14:34:38.716Z,1.00
2022-11-18T14:37:43.496Z,0.97
2022-11-18T14:40:48.118Z,1.00
2022-11-18T14:43:54.321Z,0.83
2022-11-18T14:47:01.328Z,1.10
2022-11-18T14:50:10.461Z,1.00
2022-11-18T14:53:15.536Z,0.97
2022-11-18T14:56:25.541Z,0.87
2022-11-18T14:59:32.469Z,1.20
2022-11-18T15:02:37.288Z,1.17
2022-11-18T15:05:41.968Z,1.13
2022-11-18T15:08:49.179Z,1.03
2022-11-18T15:11:54.322Z,0.90
2022-11-18T15:15:00.471Z,1.00
2022-11-18T15:18:05.212Z,1.00
2022-11-18T15:21:10.186Z,1.10
2022-11-18T15:24:16.077Z,0.90
2022-11-18T15:27:21.368Z,1.10
2022-11-18T15:30:27.337Z,0.90
2022-11-18T15:33:32.220Z,1.20
2022-11-18T15:36:37.116Z,1.20
2022-11-18T15:39:41.995Z,1.20
2022-11-18T15:42:51.847Z,1.47
2022-11-18T15:46:00.752Z,2.00
2022-11-18T15:49:09.095Z,2.60
2022-11-18T15:52:14.533Z,1.53
2022-11-18T15:55:19.217Z,1.53
2022-11-18T15:58:31.492Z,2.07
2022-11-18T16:01:43.098Z,1.90
2022-11-18T16:04:47.958Z,1.60
2022-11-18T16:07:54.965Z,1.30
2022-11-18T16:11:17.849Z,1.60
2022-11-18T16:14:24.310Z,1.47
2022-11-18T16:17:30.447Z,1.30
2022-11-18T16:20:35.061Z,2.20
2022-11-18T16:23:39.937Z,1.30
2022-11-18T16:26:44.914Z,1.50
2022-11-18T16:29:49.818Z,3.23
2022-11-18T16:32:56.115Z,1.30
2022-11-18T16:36:00.975Z,1.20
2022-11-18T16:39:07.650Z,1.20
2022-11-18T16:42:13.619Z,1.20
2022-11-18T16:45:18.683Z,1.30
2022-11-18T16:48:24.901Z,1.30
2022-11-18T16:51:31.286Z,1.50
2022-11-18T16:54:41.029Z,1.20
2022-11-18T16:57:49.164Z,1.10
2022-11-18T17:01:17.209Z,1.50
2022-11-18T17:04:21.053Z,2.77
2022-11-18T17:07:25.890Z,1.23
2022-11-18T17:10:30.624Z,1.23
2022-11-18T17:13:35.611Z,1.20
2022-11-18T17:16:40.491Z,1.20
2022-11-18T17:19:46.626Z,1.00
2022-11-18T17:22:53.712Z,1.30
2022-11-18T17:25:58.572Z,1.10
2022-11-18T17:29:03.737Z,1.30
2022-11-18T17:32:08.617Z,1.50
2022-11-18T17:35:15.180Z,1.33
2022-11-18T17:38:20.039Z,1.20
2022-11-18T17:41:45.589Z,1.27
2022-11-18T17:44:50.400Z,1.20
2022-11-18T17:47:55.560Z,1.50
2022-11-18T17:51:08.384Z,1.70
2022-11-18T17:54:14.313Z,1.50
2022-11-18T17:57:19.338Z,1.57
2022-11-18T18:00:24.203Z,1.33
2022-11-18T18:03:30.717Z,2.13
2022-11-18T18:06:37.258Z,2.23
2022-11-18T18:09:41.999Z,1.80
2022-11-18T18:13:04.132Z,1.70
2022-11-18T18:16:09.259Z,1.63
2022-11-18T18:19:17.715Z,1.53
2022-11-18T18:22:23.886Z,1.90
2022-11-18T18:25:28.476Z,1.50
2022-11-18T18:28:33.392Z,1.60
2022-11-18T18:31:38.847Z,1.40
2022-11-18T18:34:43.730Z,1.30
2022-11-18T18:37:49.634Z,1.50
2022-11-18T18:40:55.412Z,1.50
2022-11-18T18:44:00.389Z,1.30
2022-11-18T18:47:04.258Z,4.60
2022-11-18T18:50:09.109Z,7.13
2022-11-18T18:53:15.874Z,3.90
2022-11-18T18:56:20.461Z,2.00
2022-11-18T18:59:25.332Z,1.50
2022-11-18T19:02:29.872Z,1.50
2022-11-18T19:06:12.203Z,1.43
2022-11-18T19:09:02.759Z,1.43
2022-11-18T19:12:25.888Z,1.40
2022-11-18T19:15:30.581Z,3.60
2022-11-18T19:18:36.469Z,3.10
2022-11-18T19:21:41.317Z,1.77
2022-11-18T19:24:50.255Z,1.20
2022-11-18T19:27:55.425Z,1.20
2022-11-18T19:31:01.165Z,1.30
2022-11-18T19:34:05.960Z,1.10
2022-11-18T19:37:10.906Z,1.27
2022-11-18T19:40:17.072Z,1.40
2022-11-18T19:43:21.939Z,1.10
2022-11-18T19:46:30.551Z,1.20
2022-11-18T19:49:36.710Z,1.40
2022-11-18T19:52:41.254Z,1.40
2022-11-18T19:55:56.794Z,1.17
2022-11-18T19:59:01.938Z,1.20
2022-11-18T20:02:07.207Z,1.30
2022-11-18T20:05:30.329Z,1.20
2022-11-18T20:08:36.757Z,1.40
2022-11-18T20:11:45.079Z,1.00
2022-11-18T20:14:49.914Z,1.30
2022-11-18T20:17:54.780Z,1.33
2022-11-18T20:21:06.866Z,1.10
2022-11-18T20:24:17.045Z,1.30
2022-11-18T20:27:23.394Z,1.20
2022-11-18T20:30:27.928Z,1.30
2022-11-18T20:33:35.329Z,1.30
2022-11-18T20:36:40.095Z,1.30
2022-11-18T20:39:44.979Z,1.20
2022-11-18T20:43:08.232Z,1.20
2022-11-18T20:46:17.348Z,1.30
2022-11-18T20:49:24.954Z,1.57
2022-11-18T20:52:29.745Z,1.13
2022-11-18T20:55:37.901Z,1.03
2022-11-18T20:58:44.192Z,1.17
2022-11-18T21:01:48.935Z,1.30
2022-11-18T21:04:53.832Z,1.30
2022-11-18T21:07:58.364Z,1.17
2022-11-18T21:11:04.409Z,1.03
2022-11-18T21:14:24.834Z,1.10
2022-11-18T21:17:30.249Z,1.00
2022-11-18T21:20:52.134Z,1.20
2022-11-18T21:23:57.393Z,1.10
2022-11-18T21:27:03.849Z,1.10
2022-11-18T21:30:12.823Z,0.90
2022-11-18T21:33:17.421Z,1.00
2022-11-18T21:36:23.520Z,1.20
2022-11-18T21:39:28.426Z,1.10
2022-11-18T21:42:33.292Z,0.90
2022-11-18T21:45:39.269Z,1.10
2022-11-18T21:48:44.720Z,1.03
2022-11-18T21:51:49.459Z,1.10
2022-11-18T21:54:54.310Z,1.20
2022-11-18T21:58:02.976Z,0.83
2022-11-18T22:01:12.884Z,0.83
2022-11-18T22:04:31.459Z,1.07
2022-11-18T22:07:37.458Z,1.10
2022-11-18T22:10:47.226Z,0.90
2022-11-18T22:13:52.962Z,1.03
2022-11-18T22:16:59.552Z,1.00
2022-11-18T22:20:04.879Z,1.00
2022-11-18T22:23:14.504Z,0.90
2022-11-18T22:26:21.294Z,0.87
2022-11-18T22:29:26.283Z,1.07
2022-11-18T22:32:32.504Z,0.90
2022-11-18T22:35:37.074Z,1.00
2022-11-18T22:38:43.369Z,0.93
2022-11-18T22:42:05.542Z,1.10
2022-11-18T22:45:12.287Z,1.00
2022-11-18T22:48:18.398Z,1.10
2022-11-18T22:51:23.309Z,0.90
2022-11-18T22:54:43.457Z,1.00
2022-11-18T22:57:48.239Z,1.10
2022-11-18T23:00:52.838Z,0.70
2022-11-18T23:03:59.121Z,1.00
2022-11-18T23:07:04.607Z,1.00
2022-11-18T23:10:10.593Z,1.00
2022-11-18T23:13:33.791Z,0.80
2022-11-18T23:16:40.794Z,1.00
2022-11-18T23:19:47.539Z,1.00
2022-11-18T23:22:53.560Z,0.90
2022-11-18T23:26:05.740Z,1.00
2022-11-18T23:29:11.267Z,0.90
2022-11-18T23:32:16.090Z,1.00
2022-11-18T23:35:22.240Z,1.00
2022-11-18T23:38:27.993Z,0.97
2022-11-18T23:41:32.920Z,1.00
2022-11-18T23:44:46.934Z,1.10
2022-11-18T23:47:51.957Z,0.80
2022-11-18T23:50:59.465Z,0.80
2022-11-18T23:54:04.426Z,0.90
2022-11-18T23:57:09.671Z,1.10
